sensor_id;sensor_type;location;lat;lon;timestamp;pressure;altitude;pressure_sealevel;temperature;humidity
9229;BME280;4649;42.644;23.284;2023-05-03T00:35:03;93344.06;;;11.20;53.76
9229;BME280;4649;42.644;23.284;2023-05-03T00:41:45;93349.69;;;11.11;53.60
9229;BME280;4649;42.644;23.284;2023-05-03T03:16:21;93246.03;;;10.00;57.86
9229;BME280;4649;42.644;23.284;2023-05-03T03:18:51;93238.28;;;10.13;57.59
9229;BME280;4649;42.644;23.284;2023-05-03T03:21:48;93153.84;;;9.57;57.04
9229;BME280;4649;42.644;23.284;2023-05-03T03:24:29;93173.97;;;9.92;56.44
9229;BME280;4649;42.644;23.284;2023-05-03T03:26:59;93290.69;;;10.74;56.56
9229;BME280;4649;42.644;23.284;2023-05-03T03:29:30;93276.47;;;10.84;57.02
9229;BME280;4649;42.644;23.284;2023-05-03T03:31:59;93171.47;;;10.30;55.97
9229;BME280;4649;42.644;23.284;2023-05-03T03:34:26;93175.66;;;10.31;56.85
9229;BME280;4649;42.644;23.284;2023-05-03T03:36:55;93187.97;;;10.37;56.39
9229;BME280;4649;42.644;23.284;2023-05-03T03:39:23;93197.03;;;10.34;55.89
9229;BME280;4649;42.644;23.284;2023-05-03T03:41:51;93285.56;;;10.87;56.56
9229;BME280;4649;42.644;23.284;2023-05-03T03:44:19;93304.63;;;11.14;55.96
9229;BME280;4649;42.644;23.284;2023-05-03T03:46:48;93209.41;;;10.46;55.80
9229;BME280;4649;42.644;23.284;2023-05-03T03:49:17;93323.41;;;11.39;55.76
9229;BME280;4649;42.644;23.284;2023-05-03T03:51:47;93193.47;;;10.70;54.85
9229;BME280;4649;42.644;23.284;2023-05-03T03:54:14;93307.13;;;11.34;56.21
9229;BME280;4649;42.644;23.284;2023-05-03T03:56:41;93290.88;;;11.28;55.47
9229;BME280;4649;42.644;23.284;2023-05-03T03:59:09;93200.59;;;10.57;54.13
9229;BME280;4649;42.644;23.284;2023-05-03T04:01:36;93127.91;;;10.17;53.44
9229;BME280;4649;42.644;23.284;2023-05-03T04:04:03;93350.53;;;11.45;54.71
9229;BME280;4649;42.644;23.284;2023-05-03T04:06:33;93224.00;;;10.71;54.84
9229;BME280;4649;42.644;23.284;2023-05-03T04:09:06;93211.22;;;10.77;54.58
9229;BME280;4649;42.644;23.284;2023-05-03T04:11:33;93325.91;;;11.48;53.94
9229;BME280;4649;42.644;23.284;2023-05-03T04:14:00;93267.88;;;10.91;54.25
9229;BME280;4649;42.644;23.284;2023-05-03T04:16:30;93208.75;;;10.79;54.00
9229;BME280;4649;42.644;23.284;2023-05-03T04:18:56;93346.06;;;11.36;52.53
9229;BME280;4649;42.644;23.284;2023-05-03T04:21:23;93217.53;;;9.99;54.95
9229;BME280;4649;42.644;23.284;2023-05-03T04:24:02;93355.16;;;10.70;56.36
9229;BME280;4649;42.644;23.284;2023-05-03T04:26:38;93284.88;;;9.97;56.80
9229;BME280;4649;42.644;23.284;2023-05-03T04:29:32;93133.66;;;9.10;56.69
9229;BME280;4649;42.644;23.284;2023-05-03T04:32:06;93153.63;;;9.24;56.96
9229;BME280;4649;42.644;23.284;2023-05-03T04:34:37;93165.56;;;9.12;56.52
9229;BME280;4649;42.644;23.284;2023-05-03T04:37:10;93230.16;;;9.77;57.02
9229;BME280;4649;42.644;23.284;2023-05-03T04:39:43;93201.91;;;9.78;57.31
9229;BME280;4649;42.644;23.284;2023-05-03T04:42:23;93380.38;;;10.92;54.76
9229;BME280;4649;42.644;23.284;2023-05-03T04:45:16;93384.22;;;10.75;55.33
9229;BME280;4649;42.644;23.284;2023-05-03T04:48:02;93251.03;;;9.76;55.29
9229;BME280;4649;42.644;23.284;2023-05-03T04:51:36;93331.78;;;10.25;56.29
9229;BME280;4649;42.644;23.284;2023-05-03T04:54:24;93333.88;;;10.10;56.28
9229;BME280;4649;42.644;23.284;2023-05-03T04:57:10;93161.97;;;9.20;57.42
9229;BME280;4649;42.644;23.284;2023-05-03T04:59:47;93265.50;;;10.04;58.31
9229;BME280;4649;42.644;23.284;2023-05-03T05:02:14;93263.88;;;10.23;58.29
9229;BME280;4649;42.644;23.284;2023-05-03T05:04:43;93370.78;;;10.96;56.04
9229;BME280;4649;42.644;23.284;2023-05-03T05:07:11;93404.19;;;11.35;55.71
9229;BME280;4649;42.644;23.284;2023-05-03T05:09:42;93260.34;;;10.53;55.71
9229;BME280;4649;42.644;23.284;2023-05-03T05:12:19;93217.41;;;9.83;57.14
9229;BME280;4649;42.644;23.284;2023-05-03T05:18:11;93426.44;;;10.25;63.12
9229;BME280;4649;42.644;23.284;2023-05-03T05:21:17;93194.75;;;8.57;64.07
9229;BME280;4649;42.644;23.284;2023-05-03T07:36:53;93407.38;;;10.76;69.57
9229;BME280;4649;42.644;23.284;2023-05-03T07:39:22;93347.84;;;10.87;67.56
9229;BME280;4649;42.644;23.284;2023-05-03T07:42:02;93270.84;;;10.98;65.03
9229;BME280;4649;42.644;23.284;2023-05-03T07:44:39;93356.25;;;10.94;66.65
9229;BME280;4649;42.644;23.284;2023-05-03T07:47:14;93350.94;;;11.21;64.86
9229;BME280;4649;42.644;23.284;2023-05-03T07:49:42;93300.22;;;11.16;63.71
9229;BME280;4649;42.644;23.284;2023-05-03T07:52:17;93218.16;;;10.94;63.29
9229;BME280;4649;42.644;23.284;2023-05-03T07:54:47;93342.72;;;12.23;61.40
9229;BME280;4649;42.644;23.284;2023-05-03T07:57:19;93304.97;;;12.14;61.13
9229;BME280;4649;42.644;23.284;2023-05-03T07:59:51;93375.97;;;12.78;59.25
9229;BME280;4649;42.644;23.284;2023-05-03T08:02:29;93271.25;;;11.66;60.70
9229;BME280;4649;42.644;23.284;2023-05-03T08:10:54;93431.31;;;12.64;61.76
9229;BME280;4649;42.644;23.284;2023-05-03T08:13:32;93423.88;;;12.76;62.92
9229;BME280;4649;42.644;23.284;2023-05-03T08:16:00;93427.69;;;13.40;60.72
9229;BME280;4649;42.644;23.284;2023-05-03T08:18:28;93376.72;;;13.57;58.81
9229;BME280;4649;42.644;23.284;2023-05-03T08:20:55;93438.19;;;12.98;60.38
9229;BME280;4649;42.644;23.284;2023-05-03T08:23:23;93400.56;;;13.18;59.68
9229;BME280;4649;42.644;23.284;2023-05-03T08:26:06;93288.19;;;12.37;58.94
9229;BME280;4649;42.644;23.284;2023-05-03T08:28:37;93436.22;;;13.71;57.86
9229;BME280;4649;42.644;23.284;2023-05-03T08:31:06;93244.19;;;12.61;58.75
9229;BME280;4649;42.644;23.284;2023-05-03T08:33:33;93285.38;;;13.32;56.45
9229;BME280;4649;42.644;23.284;2023-05-03T08:36:09;93385.78;;;13.70;57.13
9229;BME280;4649;42.644;23.284;2023-05-03T08:38:37;93337.75;;;13.33;58.59
9229;BME280;4649;42.644;23.284;2023-05-03T08:41:16;93306.66;;;14.03;57.29
9229;BME280;4649;42.644;23.284;2023-05-03T08:43:44;93261.13;;;14.33;53.32
9229;BME280;4649;42.644;23.284;2023-05-03T08:46:15;93322.94;;;15.09;52.56
9229;BME280;4649;42.644;23.284;2023-05-03T08:48:44;93419.44;;;16.09;52.07
9229;BME280;4649;42.644;23.284;2023-05-03T08:51:16;93318.19;;;15.15;52.10
9229;BME280;4649;42.644;23.284;2023-05-03T08:53:44;93406.75;;;15.75;51.74
9229;BME280;4649;42.644;23.284;2023-05-03T08:56:17;93366.59;;;15.51;50.93
9229;BME280;4649;42.644;23.284;2023-05-03T08:58:47;93267.19;;;14.44;52.18
9229;BME280;4649;42.644;23.284;2023-05-03T09:01:18;93437.88;;;15.42;52.88
9229;BME280;4649;42.644;23.284;2023-05-03T09:03:48;93278.31;;;14.22;52.59
9229;BME280;4649;42.644;23.284;2023-05-03T09:06:20;93449.91;;;15.76;52.06
9229;BME280;4649;42.644;23.284;2023-05-03T09:08:50;93401.06;;;14.54;54.70
9229;BME280;4649;42.644;23.284;2023-05-03T09:11:24;93440.78;;;15.50;54.25
9229;BME280;4649;42.644;23.284;2023-05-03T09:13:52;93413.97;;;16.09;52.35
9229;BME280;4649;42.644;23.284;2023-05-03T09:16:23;93387.69;;;16.24;50.76
9229;BME280;4649;42.644;23.284;2023-05-03T09:18:59;93420.50;;;16.87;51.33
9229;BME280;4649;42.644;23.284;2023-05-03T09:21:27;93422.91;;;16.90;49.15
9229;BME280;4649;42.644;23.284;2023-05-03T09:23:56;93381.06;;;15.65;51.00
9229;BME280;4649;42.644;23.284;2023-05-03T09:26:30;93326.28;;;14.78;54.03
9229;BME280;4649;42.644;23.284;2023-05-03T09:28:58;93298.94;;;15.08;52.71
9229;BME280;4649;42.644;23.284;2023-05-03T09:31:29;93381.22;;;15.90;51.33
9229;BME280;4649;42.644;23.284;2023-05-03T09:33:57;93388.19;;;16.41;51.51
9229;BME280;4649;42.644;23.284;2023-05-03T09:36:24;93356.06;;;16.47;49.63
9229;BME280;4649;42.644;23.284;2023-05-03T09:38:53;93349.25;;;16.53;49.39
9229;BME280;4649;42.644;23.284;2023-05-03T09:41:29;93364.91;;;16.53;50.23
9229;BME280;4649;42.644;23.284;2023-05-03T09:43:58;93396.59;;;17.44;49.44
9229;BME280;4649;42.644;23.284;2023-05-03T09:46:27;93226.19;;;16.59;48.04
9229;BME280;4649;42.644;23.284;2023-05-03T09:48:55;93398.09;;;18.04;46.76
9229;BME280;4649;42.644;23.284;2023-05-03T09:51:24;93323.19;;;15.11;54.53
9229;BME280;4649;42.644;23.284;2023-05-03T09:53:53;93192.53;;;15.13;52.00
9229;BME280;4649;42.644;23.284;2023-05-03T09:56:24;93336.13;;;16.65;49.74
9229;BME280;4649;42.644;23.284;2023-05-03T09:58:54;93383.75;;;17.39;49.48
9229;BME280;4649;42.644;23.284;2023-05-03T10:01:26;93335.41;;;16.77;48.95
9229;BME280;4649;42.644;23.284;2023-05-03T10:03:54;93165.03;;;13.90;54.17
9229;BME280;4649;42.644;23.284;2023-05-03T10:06:25;93258.53;;;15.48;51.62
9229;BME280;4649;42.644;23.284;2023-05-03T10:09:00;93398.13;;;17.01;51.06
9229;BME280;4649;42.644;23.284;2023-05-03T10:11:33;93253.41;;;16.77;48.47
9229;BME280;4649;42.644;23.284;2023-05-03T10:14:03;93267.25;;;17.31;47.71
9229;BME280;4649;42.644;23.284;2023-05-03T10:16:35;93360.13;;;17.75;46.23
9229;BME280;4649;42.644;23.284;2023-05-03T10:19:08;93218.63;;;16.65;48.22
9229;BME280;4649;42.644;23.284;2023-05-03T10:21:50;93321.59;;;16.57;50.50
9229;BME280;4649;42.644;23.284;2023-05-03T10:24:21;93353.19;;;16.84;49.53
9229;BME280;4649;42.644;23.284;2023-05-03T10:26:51;93266.88;;;16.75;50.33
9229;BME280;4649;42.644;23.284;2023-05-03T10:29:47;93348.78;;;17.58;49.56
9229;BME280;4649;42.644;23.284;2023-05-03T10:32:32;93157.81;;;16.07;48.92
9229;BME280;4649;42.644;23.284;2023-05-03T10:35:01;93257.91;;;17.26;48.80
9229;BME280;4649;42.644;23.284;2023-05-03T10:37:32;93204.50;;;16.87;47.48
9229;BME280;4649;42.644;23.284;2023-05-03T10:40:08;93171.88;;;16.11;49.42
9229;BME280;4649;42.644;23.284;2023-05-03T10:42:37;93287.38;;;16.95;49.39
9229;BME280;4649;42.644;23.284;2023-05-03T10:45:21;93263.31;;;15.92;52.85
9229;BME280;4649;42.644;23.284;2023-05-03T10:48:17;93342.06;;;16.95;52.54
9229;BME280;4649;42.644;23.284;2023-05-03T10:50:47;93345.75;;;16.97;51.62
9229;BME280;4649;42.644;23.284;2023-05-03T10:53:35;93129.09;;;15.13;52.23
9229;BME280;4649;42.644;23.284;2023-05-03T10:56:05;93209.25;;;15.59;53.30
9229;BME280;4649;42.644;23.284;2023-05-03T10:58:37;93347.34;;;16.48;53.49
9229;BME280;4649;42.644;23.284;2023-05-03T11:01:12;93192.84;;;15.10;53.23
9229;BME280;4649;42.644;23.284;2023-05-03T11:03:47;93138.16;;;14.47;53.19
9229;BME280;4649;42.644;23.284;2023-05-03T11:06:28;93212.97;;;14.46;54.51
9229;BME280;4649;42.644;23.284;2023-05-03T11:08:56;93187.66;;;14.88;53.31
9229;BME280;4649;42.644;23.284;2023-05-03T11:11:24;93295.00;;;15.64;53.41
9229;BME280;4649;42.644;23.284;2023-05-03T11:13:52;93261.09;;;15.41;54.17
9229;BME280;4649;42.644;23.284;2023-05-03T11:16:33;93330.16;;;16.04;54.13
9229;BME280;4649;42.644;23.284;2023-05-03T11:19:05;93202.19;;;15.51;54.26
9229;BME280;4649;42.644;23.284;2023-05-03T11:21:32;93270.94;;;15.81;54.45
9229;BME280;4649;42.644;23.284;2023-05-03T11:24:00;93116.44;;;15.15;52.80
9229;BME280;4649;42.644;23.284;2023-05-03T11:26:28;93184.25;;;15.55;54.32
9229;BME280;4649;42.644;23.284;2023-05-03T11:29:00;93072.91;;;15.10;53.15
9229;BME280;4649;42.644;23.284;2023-05-03T11:31:30;93187.25;;;15.70;53.80
9229;BME280;4649;42.644;23.284;2023-05-03T11:33:59;93272.84;;;16.17;53.66
9229;BME280;4649;42.644;23.284;2023-05-03T11:36:27;93198.03;;;15.63;53.81
9229;BME280;4649;42.644;23.284;2023-05-03T11:38:56;93197.22;;;15.36;55.40
9229;BME280;4649;42.644;23.284;2023-05-03T11:41:24;93273.56;;;16.17;55.50
9229;BME280;4649;42.644;23.284;2023-05-03T11:43:52;93227.09;;;15.91;54.04
9229;BME280;4649;42.644;23.284;2023-05-03T11:46:24;93302.47;;;16.70;53.71
9229;BME280;4649;42.644;23.284;2023-05-03T11:48:54;93054.84;;;15.07;54.26
9229;BME280;4649;42.644;23.284;2023-05-03T11:51:23;93226.31;;;16.22;54.83
9229;BME280;4649;42.644;23.284;2023-05-03T11:53:51;93118.56;;;15.97;52.41
9229;BME280;4649;42.644;23.284;2023-05-03T11:56:23;93201.56;;;16.72;51.89
9229;BME280;4649;42.644;23.284;2023-05-03T11:58:54;93277.59;;;17.12;52.67
9229;BME280;4649;42.644;23.284;2023-05-03T12:01:24;93273.16;;;17.09;52.74
9229;BME280;4649;42.644;23.284;2023-05-03T12:03:56;93270.09;;;17.12;53.07
9229;BME280;4649;42.644;23.284;2023-05-03T12:06:27;93159.66;;;16.56;52.29
9229;BME280;4649;42.644;23.284;2023-05-03T12:08:56;93153.94;;;16.80;51.62
9229;BME280;4649;42.644;23.284;2023-05-03T12:11:25;93125.22;;;16.87;51.75
9229;BME280;4649;42.644;23.284;2023-05-03T12:13:56;93154.63;;;16.35;52.27
9229;BME280;4649;42.644;23.284;2023-05-03T12:16:24;93100.06;;;16.03;52.37
9229;BME280;4649;42.644;23.284;2023-05-03T12:18:54;93059.31;;;15.67;53.89
9229;BME280;4649;42.644;23.284;2023-05-03T12:21:46;93213.34;;;16.28;55.87
9229;BME280;4649;42.644;23.284;2023-05-03T12:24:15;93052.34;;;14.41;58.10
9229;BME280;4649;42.644;23.284;2023-05-03T12:26:44;93210.28;;;15.56;58.13
9229;BME280;4649;42.644;23.284;2023-05-03T12:29:12;93255.94;;;14.77;59.72
9229;BME280;4649;42.644;23.284;2023-05-03T12:31:57;93149.47;;;14.14;61.09
9229;BME280;4649;42.644;23.284;2023-05-03T12:34:31;93278.91;;;15.05;61.27
9229;BME280;4649;42.644;23.284;2023-05-03T12:37:01;93222.38;;;14.45;62.10
9229;BME280;4649;42.644;23.284;2023-05-03T12:39:46;93157.97;;;14.00;62.61
9229;BME280;4649;42.644;23.284;2023-05-03T12:42:15;93164.66;;;13.75;63.08
9229;BME280;4649;42.644;23.284;2023-05-03T12:44:45;93055.94;;;12.87;64.37
9229;BME280;4649;42.644;23.284;2023-05-03T12:47:22;93213.56;;;13.81;65.82
9229;BME280;4649;42.644;23.284;2023-05-03T12:49:56;93275.00;;;14.00;66.16
9229;BME280;4649;42.644;23.284;2023-05-03T12:52:44;93126.97;;;13.02;66.63
9229;BME280;4649;42.644;23.284;2023-05-03T12:55:27;93200.13;;;13.30;67.67
9229;BME280;4649;42.644;23.284;2023-05-03T13:01:44;93109.44;;;12.58;71.47
9229;BME280;4649;42.644;23.284;2023-05-03T13:07:10;93038.03;;;11.77;75.62
9229;BME280;4649;42.644;23.284;2023-05-03T13:09:53;93244.53;;;13.43;76.47
9229;BME280;4649;42.644;23.284;2023-05-03T13:12:29;93101.97;;;12.23;76.43
9229;BME280;4649;42.644;23.284;2023-05-03T13:15:01;93015.22;;;11.56;77.68
9229;BME280;4649;42.644;23.284;2023-05-03T13:17:58;93266.47;;;13.10;78.94
9229;BME280;4649;42.644;23.284;2023-05-03T16:31:27;93065.47;;;8.54;100.00
9229;BME280;4649;42.644;23.284;2023-05-03T16:34:21;93278.53;;;10.06;100.00
9229;BME280;4649;42.644;23.284;2023-05-03T16:37:08;93196.38;;;9.62;100.00
9229;BME280;4649;42.644;23.284;2023-05-03T16:39:47;93288.16;;;10.12;100.00
9229;BME280;4649;42.644;23.284;2023-05-03T16:42:58;93282.50;;;10.10;100.00
9229;BME280;4649;42.644;23.284;2023-05-03T18:23:25;93329.25;;;10.16;100.00
9229;BME280;4649;42.644;23.284;2023-05-03T18:29:14;93279.50;;;9.72;100.00
9229;BME280;4649;42.644;23.284;2023-05-03T18:32:18;93267.38;;;9.93;100.00
9229;BME280;4649;42.644;23.284;2023-05-03T18:35:05;93283.72;;;10.09;100.00
9229;BME280;4649;42.644;23.284;2023-05-03T19:47:06;93277.63;;;10.67;100.00
